sensor_id;sensor_type;location;lat;lon;timestamp;temperature;humidity
76878;DHT22;65843;50.692;12.844;2023-02-15T00:00:48;17.80;61.10
76878;DHT22;65843;50.692;12.844;2023-02-15T00:01:48;17.80;61.10
76878;DHT22;65843;50.692;12.844;2023-02-15T00:02:49;17.80;61.30
76878;DHT22;65843;50.692;12.844;2023-02-15T00:03:50;17.80;61.30
76878;DHT22;65843;50.692;12.844;2023-02-15T00:04:51;17.80;61.30
76878;DHT22;65843;50.692;12.844;2023-02-15T00:05:56;17.80;61.20
76878;DHT22;65843;50.692;12.844;2023-02-15T00:06:57;17.80;61.40
76878;DHT22;65843;50.692;12.844;2023-02-15T00:07:57;17.80;61.30
76878;DHT22;65843;50.692;12.844;2023-02-15T00:08:58;17.80;61.50
76878;DHT22;65843;50.692;12.844;2023-02-15T00:09:59;17.80;61.20
76878;DHT22;65843;50.692;12.844;2023-02-15T00:11:06;17.80;61.30
76878;DHT22;65843;50.692;12.844;2023-02-15T00:12:08;17.80;61.30
76878;DHT22;65843;50.692;12.844;2023-02-15T00:13:09;17.80;61.40
76878;DHT22;65843;50.692;12.844;2023-02-15T00:14:15;17.80;61.10
76878;DHT22;65843;50.692;12.844;2023-02-15T00:15:16;17.80;61.40
76878;DHT22;65843;50.692;12.844;2023-02-15T00:16:17;17.80;61.20
76878;DHT22;65843;50.692;12.844;2023-02-15T00:17:18;17.90;61.40
76878;DHT22;65843;50.692;12.844;2023-02-15T00:18:19;17.80;60.70
76878;DHT22;65843;50.692;12.844;2023-02-15T00:19:20;17.90;61.30
76878;DHT22;65843;50.692;12.844;2023-02-15T00:20:21;17.90;61.40
76878;DHT22;65843;50.692;12.844;2023-02-15T00:21:22;17.90;60.80
76878;DHT22;65843;50.692;12.844;2023-02-15T00:22:23;17.90;61.20
76878;DHT22;65843;50.692;12.844;2023-02-15T00:23:24;17.90;61.40
76878;DHT22;65843;50.692;12.844;2023-02-15T00:24:26;17.90;61.40
76878;DHT22;65843;50.692;12.844;2023-02-15T00:25:27;17.90;61.50
76878;DHT22;65843;50.692;12.844;2023-02-15T00:26:28;17.90;61.40
76878;DHT22;65843;50.692;12.844;2023-02-15T00:27:29;17.90;61.40
76878;DHT22;65843;50.692;12.844;2023-02-15T00:28:30;17.90;61.40
76878;DHT22;65843;50.692;12.844;2023-02-15T00:29:31;17.90;61.50
76878;DHT22;65843;50.692;12.844;2023-02-15T00:30:32;17.90;61.40
76878;DHT22;65843;50.692;12.844;2023-02-15T00:31:33;17.90;61.50
76878;DHT22;65843;50.692;12.844;2023-02-15T00:32:34;17.90;61.40
76878;DHT22;65843;50.692;12.844;2023-02-15T00:33:36;17.90;61.30
76878;DHT22;65843;50.692;12.844;2023-02-15T00:34:37;17.90;61.50
76878;DHT22;65843;50.692;12.844;2023-02-15T00:35:38;17.90;61.50
76878;DHT22;65843;50.692;12.844;2023-02-15T00:36:39;17.90;61.60
76878;DHT22;65843;50.692;12.844;2023-02-15T00:37:40;17.90;61.70
76878;DHT22;65843;50.692;12.844;2023-02-15T00:38:41;17.90;61.50
76878;DHT22;65843;50.692;12.844;2023-02-15T00:39:41;17.90;61.60
76878;DHT22;65843;50.692;12.844;2023-02-15T00:40:42;17.90;61.70
76878;DHT22;65843;50.692;12.844;2023-02-15T00:41:44;17.90;61.80
76878;DHT22;65843;50.692;12.844;2023-02-15T00:42:45;17.90;61.70
76878;DHT22;65843;50.692;12.844;2023-02-15T00:43:46;17.90;61.90
76878;DHT22;65843;50.692;12.844;2023-02-15T00:44:46;17.90;61.80
76878;DHT22;65843;50.692;12.844;2023-02-15T00:45:47;17.90;61.80
76878;DHT22;65843;50.692;12.844;2023-02-15T00:46:48;17.90;61.80
76878;DHT22;65843;50.692;12.844;2023-02-15T00:47:49;17.90;61.90
76878;DHT22;65843;50.692;12.844;2023-02-15T00:48:50;17.90;61.70
76878;DHT22;65843;50.692;12.844;2023-02-15T00:49:51;17.90;61.90
76878;DHT22;65843;50.692;12.844;2023-02-15T00:50:52;17.90;62.00
76878;DHT22;65843;50.692;12.844;2023-02-15T00:51:54;17.90;61.90
76878;DHT22;65843;50.692;12.844;2023-02-15T00:52:55;17.90;62.00
76878;DHT22;65843;50.692;12.844;2023-02-15T00:53:56;17.90;62.10
76878;DHT22;65843;50.692;12.844;2023-02-15T00:54:56;17.90;61.90
76878;DHT22;65843;50.692;12.844;2023-02-15T00:55:57;17.90;62.20
76878;DHT22;65843;50.692;12.844;2023-02-15T00:56:58;18.00;61.50
76878;DHT22;65843;50.692;12.844;2023-02-15T00:57:59;18.00;62.10
76878;DHT22;65843;50.692;12.844;2023-02-15T00:59:00;18.00;62.10
76878;DHT22;65843;50.692;12.844;2023-02-15T01:00:01;18.00;62.20
76878;DHT22;65843;50.692;12.844;2023-02-15T01:01:06;18.00;62.20
76878;DHT22;65843;50.692;12.844;2023-02-15T01:02:07;18.00;62.00
76878;DHT22;65843;50.692;12.844;2023-02-15T01:03:08;18.00;62.10
76878;DHT22;65843;50.692;12.844;2023-02-15T01:04:09;18.00;62.20
76878;DHT22;65843;50.692;12.844;2023-02-15T01:05:10;18.00;62.10
76878;DHT22;65843;50.692;12.844;2023-02-15T01:06:11;18.00;62.20
76878;DHT22;65843;50.692;12.844;2023-02-15T01:07:12;18.00;62.10
76878;DHT22;65843;50.692;12.844;2023-02-15T01:08:12;18.00;62.20
76878;DHT22;65843;50.692;12.844;2023-02-15T01:09:13;18.00;62.20
76878;DHT22;65843;50.692;12.844;2023-02-15T01:10:14;18.00;62.20
76878;DHT22;65843;50.692;12.844;2023-02-15T01:11:16;18.00;62.30
76878;DHT22;65843;50.692;12.844;2023-02-15T01:12:22;18.00;62.10
76878;DHT22;65843;50.692;12.844;2023-02-15T01:13:23;18.00;62.50
76878;DHT22;65843;50.692;12.844;2023-02-15T01:14:25;18.00;62.50
76878;DHT22;65843;50.692;12.844;2023-02-15T01:15:25;18.00;62.00
76878;DHT22;65843;50.692;12.844;2023-02-15T01:16:27;18.00;62.10
76878;DHT22;65843;50.692;12.844;2023-02-15T01:17:28;18.00;62.20
76878;DHT22;65843;50.692;12.844;2023-02-15T01:18:29;18.00;62.50
76878;DHT22;65843;50.692;12.844;2023-02-15T01:19:30;18.00;62.30
76878;DHT22;65843;50.692;12.844;2023-02-15T01:20:33;18.00;62.20
76878;DHT22;65843;50.692;12.844;2023-02-15T01:21:34;18.00;62.20
76878;DHT22;65843;50.692;12.844;2023-02-15T01:22:35;18.00;62.20
76878;DHT22;65843;50.692;12.844;2023-02-15T01:23:36;18.00;62.20
76878;DHT22;65843;50.692;12.844;2023-02-15T01:24:37;18.00;61.80
76878;DHT22;65843;50.692;12.844;2023-02-15T01:25:38;18.00;62.10
76878;DHT22;65843;50.692;12.844;2023-02-15T01:26:39;18.00;62.00
76878;DHT22;65843;50.692;12.844;2023-02-15T01:27:40;18.00;62.00
76878;DHT22;65843;50.692;12.844;2023-02-15T01:28:41;18.00;61.90
76878;DHT22;65843;50.692;12.844;2023-02-15T01:29:42;18.00;61.90
76878;DHT22;65843;50.692;12.844;2023-02-15T01:30:43;18.00;61.40
76878;DHT22;65843;50.692;12.844;2023-02-15T01:31:44;18.00;61.70
76878;DHT22;65843;50.692;12.844;2023-02-15T01:32:44;18.00;61.90
76878;DHT22;65843;50.692;12.844;2023-02-15T01:33:46;18.00;61.90
76878;DHT22;65843;50.692;12.844;2023-02-15T01:34:48;18.00;61.70
76878;DHT22;65843;50.692;12.844;2023-02-15T01:35:59;18.00;61.70
76878;DHT22;65843;50.692;12.844;2023-02-15T01:37:00;18.00;62.10
76878;DHT22;65843;50.692;12.844;2023-02-15T01:38:01;18.00;62.20
76878;DHT22;65843;50.692;12.844;2023-02-15T01:39:02;18.00;61.70
76878;DHT22;65843;50.692;12.844;2023-02-15T01:40:03;18.00;62.10
76878;DHT22;65843;50.692;12.844;2023-02-15T01:41:05;18.00;61.80
76878;DHT22;65843;50.692;12.844;2023-02-15T01:42:24;18.00;62.30
76878;DHT22;65843;50.692;12.844;2023-02-15T01:43:38;18.00;61.40
76878;DHT22;65843;50.692;12.844;2023-02-15T01:45:43;18.00;61.50
76878;DHT22;65843;50.692;12.844;2023-02-15T01:46:48;18.00;61.90
76878;DHT22;65843;50.692;12.844;2023-02-15T01:47:54;18.00;61.90
76878;DHT22;65843;50.692;12.844;2023-02-15T01:48:58;18.00;61.80
76878;DHT22;65843;50.692;12.844;2023-02-15T01:50:23;18.00;61.20
76878;DHT22;65843;50.692;12.844;2023-02-15T01:51:22;18.00;61.30
76878;DHT22;65843;50.692;12.844;2023-02-15T01:52:24;18.00;61.20
76878;DHT22;65843;50.692;12.844;2023-02-15T01:53:26;18.00;61.40
76878;DHT22;65843;50.692;12.844;2023-02-15T01:54:31;18.00;61.60
76878;DHT22;65843;50.692;12.844;2023-02-15T01:55:33;18.00;61.70
76878;DHT22;65843;50.692;12.844;2023-02-15T01:56:37;18.00;61.70
76878;DHT22;65843;50.692;12.844;2023-02-15T01:57:39;18.00;61.60
76878;DHT22;65843;50.692;12.844;2023-02-15T01:58:41;18.00;61.50
76878;DHT22;65843;50.692;12.844;2023-02-15T01:59:43;18.00;61.50
76878;DHT22;65843;50.692;12.844;2023-02-15T02:00:46;18.00;61.40
76878;DHT22;65843;50.692;12.844;2023-02-15T02:01:47;18.00;61.40
76878;DHT22;65843;50.692;12.844;2023-02-15T02:02:49;18.00;61.20
76878;DHT22;65843;50.692;12.844;2023-02-15T02:04:04;18.00;61.50
76878;DHT22;65843;50.692;12.844;2023-02-15T02:05:07;18.00;61.30
76878;DHT22;65843;50.692;12.844;2023-02-15T02:06:09;18.00;61.40
76878;DHT22;65843;50.692;12.844;2023-02-15T02:07:10;18.00;61.40
76878;DHT22;65843;50.692;12.844;2023-02-15T02:08:13;18.00;61.30
76878;DHT22;65843;50.692;12.844;2023-02-15T02:09:14;18.00;61.80
76878;DHT22;65843;50.692;12.844;2023-02-15T02:10:17;18.00;61.30
76878;DHT22;65843;50.692;12.844;2023-02-15T02:11:18;18.00;61.60
76878;DHT22;65843;50.692;12.844;2023-02-15T02:12:19;18.00;61.20
76878;DHT22;65843;50.692;12.844;2023-02-15T02:13:21;18.00;61.60
76878;DHT22;65843;50.692;12.844;2023-02-15T02:14:22;18.00;61.50
76878;DHT22;65843;50.692;12.844;2023-02-15T02:15:28;18.00;61.30
76878;DHT22;65843;50.692;12.844;2023-02-15T02:17:15;18.00;61.50
76878;DHT22;65843;50.692;12.844;2023-02-15T02:18:03;18.00;61.30
76878;DHT22;65843;50.692;12.844;2023-02-15T02:21:42;18.00;61.80
76878;DHT22;65843;50.692;12.844;2023-02-15T02:23:06;18.00;61.50
76878;DHT22;65843;50.692;12.844;2023-02-15T02:30:34;18.00;61.90
76878;DHT22;65843;50.692;12.844;2023-02-15T02:31:44;18.00;61.90
76878;DHT22;65843;50.692;12.844;2023-02-15T02:32:59;18.00;62.20
76878;DHT22;65843;50.692;12.844;2023-02-15T02:36:50;18.00;62.30
76878;DHT22;65843;50.692;12.844;2023-02-15T02:42:39;18.00;62.00
76878;DHT22;65843;50.692;12.844;2023-02-15T02:43:47;17.90;62.20
76878;DHT22;65843;50.692;12.844;2023-02-15T02:44:53;17.90;62.20
76878;DHT22;65843;50.692;12.844;2023-02-15T02:46:02;17.90;62.50
76878;DHT22;65843;50.692;12.844;2023-02-15T02:47:08;17.90;62.50
76878;DHT22;65843;50.692;12.844;2023-02-15T02:48:13;17.90;61.90
76878;DHT22;65843;50.692;12.844;2023-02-15T02:49:14;17.90;62.50
76878;DHT22;65843;50.692;12.844;2023-02-15T02:50:16;18.00;62.10
76878;DHT22;65843;50.692;12.844;2023-02-15T02:51:18;17.90;62.20
76878;DHT22;65843;50.692;12.844;2023-02-15T02:53:38;17.90;62.40
76878;DHT22;65843;50.692;12.844;2023-02-15T02:54:39;17.90;62.60
76878;DHT22;65843;50.692;12.844;2023-02-15T02:55:47;17.90;62.60
76878;DHT22;65843;50.692;12.844;2023-02-15T02:56:50;17.90;62.70
76878;DHT22;65843;50.692;12.844;2023-02-15T02:59:23;17.90;62.80
76878;DHT22;65843;50.692;12.844;2023-02-15T03:00:25;17.90;62.80
76878;DHT22;65843;50.692;12.844;2023-02-15T03:01:29;17.90;62.80
76878;DHT22;65843;50.692;12.844;2023-02-15T03:02:33;17.90;63.00
76878;DHT22;65843;50.692;12.844;2023-02-15T03:03:41;17.90;63.00
76878;DHT22;65843;50.692;12.844;2023-02-15T03:04:45;17.90;63.00
76878;DHT22;65843;50.692;12.844;2023-02-15T03:05:48;17.90;63.00
76878;DHT22;65843;50.692;12.844;2023-02-15T03:06:52;17.90;63.10
76878;DHT22;65843;50.692;12.844;2023-02-15T03:07:54;17.90;63.00
76878;DHT22;65843;50.692;12.844;2023-02-15T03:08:58;17.90;62.90
76878;DHT22;65843;50.692;12.844;2023-02-15T03:10:02;17.90;62.90
76878;DHT22;65843;50.692;12.844;2023-02-15T03:11:04;17.90;62.90
76878;DHT22;65843;50.692;12.844;2023-02-15T03:12:05;17.90;63.00
76878;DHT22;65843;50.692;12.844;2023-02-15T03:13:06;17.90;62.70
76878;DHT22;65843;50.692;12.844;2023-02-15T03:14:09;18.00;62.90
76878;DHT22;65843;50.692;12.844;2023-02-15T03:15:12;17.90;62.50
76878;DHT22;65843;50.692;12.844;2023-02-15T03:16:14;18.00;62.80
76878;DHT22;65843;50.692;12.844;2023-02-15T03:17:26;17.90;62.60
76878;DHT22;65843;50.692;12.844;2023-02-15T03:18:30;18.00;62.40
76878;DHT22;65843;50.692;12.844;2023-02-15T03:19:33;18.00;62.70
76878;DHT22;65843;50.692;12.844;2023-02-15T03:20:35;18.00;62.70
76878;DHT22;65843;50.692;12.844;2023-02-15T03:22:51;17.90;62.50
76878;DHT22;65843;50.692;12.844;2023-02-15T03:23:59;18.00;62.60
76878;DHT22;65843;50.692;12.844;2023-02-15T03:26:03;18.00;62.60
76878;DHT22;65843;50.692;12.844;2023-02-15T03:27:06;18.00;62.50
76878;DHT22;65843;50.692;12.844;2023-02-15T03:28:11;18.00;62.40
76878;DHT22;65843;50.692;12.844;2023-02-15T03:29:13;18.00;62.40
76878;DHT22;65843;50.692;12.844;2023-02-15T03:30:16;18.00;62.60
76878;DHT22;65843;50.692;12.844;2023-02-15T03:31:19;18.00;62.60
76878;DHT22;65843;50.692;12.844;2023-02-15T03:32:20;18.00;62.50
76878;DHT22;65843;50.692;12.844;2023-02-15T03:33:21;18.00;62.30
76878;DHT22;65843;50.692;12.844;2023-02-15T03:34:23;18.00;62.60
76878;DHT22;65843;50.692;12.844;2023-02-15T03:35:24;18.00;62.50
76878;DHT22;65843;50.692;12.844;2023-02-15T03:36:35;18.00;63.00
76878;DHT22;65843;50.692;12.844;2023-02-15T03:37:48;18.00;63.00
76878;DHT22;65843;50.692;12.844;2023-02-15T03:40:07;18.00;63.10
76878;DHT22;65843;50.692;12.844;2023-02-15T03:41:31;18.00;63.00
76878;DHT22;65843;50.692;12.844;2023-02-15T03:42:34;18.00;62.80
76878;DHT22;65843;50.692;12.844;2023-02-15T03:45:48;18.00;62.70
76878;DHT22;65843;50.692;12.844;2023-02-15T03:47:56;18.00;62.80
76878;DHT22;65843;50.692;12.844;2023-02-15T03:49:07;18.00;62.70
76878;DHT22;65843;50.692;12.844;2023-02-15T03:51:31;18.00;62.90
76878;DHT22;65843;50.692;12.844;2023-02-15T03:52:35;18.00;63.10
76878;DHT22;65843;50.692;12.844;2023-02-15T03:53:36;18.00;62.70
76878;DHT22;65843;50.692;12.844;2023-02-15T03:54:38;17.90;63.10
76878;DHT22;65843;50.692;12.844;2023-02-15T03:55:46;17.90;63.00
76878;DHT22;65843;50.692;12.844;2023-02-15T03:56:48;17.90;62.80
76878;DHT22;65843;50.692;12.844;2023-02-15T03:58:09;17.90;62.80
76878;DHT22;65843;50.692;12.844;2023-02-15T03:59:28;17.90;62.90
76878;DHT22;65843;50.692;12.844;2023-02-15T04:00:49;17.90;62.50
76878;DHT22;65843;50.692;12.844;2023-02-15T04:02:17;17.90;62.90
76878;DHT22;65843;50.692;12.844;2023-02-15T04:03:31;18.00;62.70
76878;DHT22;65843;50.692;12.844;2023-02-15T04:05:34;18.00;63.20
76878;DHT22;65843;50.692;12.844;2023-02-15T04:06:35;18.00;63.20
76878;DHT22;65843;50.692;12.844;2023-02-15T04:07:36;18.00;63.20
76878;DHT22;65843;50.692;12.844;2023-02-15T04:08:37;18.00;63.60
76878;DHT22;65843;50.692;12.844;2023-02-15T04:09:57;18.00;63.10
76878;DHT22;65843;50.692;12.844;2023-02-15T04:11:16;18.00;62.80
76878;DHT22;65843;50.692;12.844;2023-02-15T04:12:17;18.00;63.00
76878;DHT22;65843;50.692;12.844;2023-02-15T04:13:19;18.00;62.90
76878;DHT22;65843;50.692;12.844;2023-02-15T04:14:20;18.00;63.20
76878;DHT22;65843;50.692;12.844;2023-02-15T04:15:40;18.00;62.90
76878;DHT22;65843;50.692;12.844;2023-02-15T04:16:59;18.00;63.00
76878;DHT22;65843;50.692;12.844;2023-02-15T04:18:02;17.90;63.10
76878;DHT22;65843;50.692;12.844;2023-02-15T04:19:02;17.90;63.00
76878;DHT22;65843;50.692;12.844;2023-02-15T04:20:22;17.90;62.90
76878;DHT22;65843;50.692;12.844;2023-02-15T04:21:41;17.90;63.00
76878;DHT22;65843;50.692;12.844;2023-02-15T04:23:01;17.80;63.00
76878;DHT22;65843;50.692;12.844;2023-02-15T04:24:24;17.80;63.00
76878;DHT22;65843;50.692;12.844;2023-02-15T04:25:43;17.80;63.00
76878;DHT22;65843;50.692;12.844;2023-02-15T04:26:44;17.80;62.80
76878;DHT22;65843;50.692;12.844;2023-02-15T04:27:47;17.80;62.90
76878;DHT22;65843;50.692;12.844;2023-02-15T04:28:48;17.80;63.00
76878;DHT22;65843;50.692;12.844;2023-02-15T04:29:49;17.80;63.00
76878;DHT22;65843;50.692;12.844;2023-02-15T04:30:50;17.80;62.90
76878;DHT22;65843;50.692;12.844;2023-02-15T04:31:51;17.80;63.00
76878;DHT22;65843;50.692;12.844;2023-02-15T04:32:53;17.80;62.90
76878;DHT22;65843;50.692;12.844;2023-02-15T04:33:54;17.80;63.10
76878;DHT22;65843;50.692;12.844;2023-02-15T04:34:55;17.80;62.70
76878;DHT22;65843;50.692;12.844;2023-02-15T04:35:56;17.80;62.70
76878;DHT22;65843;50.692;12.844;2023-02-15T04:36:57;17.80;62.70
76878;DHT22;65843;50.692;12.844;2023-02-15T04:37:57;17.80;63.00
76878;DHT22;65843;50.692;12.844;2023-02-15T04:38:58;17.80;63.10
76878;DHT22;65843;50.692;12.844;2023-02-15T04:39:59;17.80;63.00
76878;DHT22;65843;50.692;12.844;2023-02-15T04:41:00;17.80;62.60
76878;DHT22;65843;50.692;12.844;2023-02-15T04:42:01;17.80;62.50
76878;DHT22;65843;50.692;12.844;2023-02-15T04:43:02;17.80;62.70
76878;DHT22;65843;50.692;12.844;2023-02-15T04:44:03;17.80;62.50
76878;DHT22;65843;50.692;12.844;2023-02-15T04:45:04;17.80;62.70
76878;DHT22;65843;50.692;12.844;2023-02-15T04:46:05;17.80;62.50
76878;DHT22;65843;50.692;12.844;2023-02-15T04:47:06;17.80;62.50
76878;DHT22;65843;50.692;12.844;2023-02-15T04:48:07;17.80;62.60
76878;DHT22;65843;50.692;12.844;2023-02-15T04:49:08;17.80;62.40
76878;DHT22;65843;50.692;12.844;2023-02-15T04:50:09;17.80;62.20
76878;DHT22;65843;50.692;12.844;2023-02-15T04:51:10;17.80;62.20
76878;DHT22;65843;50.692;12.844;2023-02-15T04:52:11;17.80;62.40
76878;DHT22;65843;50.692;12.844;2023-02-15T04:53:12;17.80;62.30
76878;DHT22;65843;50.692;12.844;2023-02-15T04:54:13;17.80;62.40
76878;DHT22;65843;50.692;12.844;2023-02-15T04:55:14;17.80;62.30
76878;DHT22;65843;50.692;12.844;2023-02-15T04:56:15;17.80;62.60
76878;DHT22;65843;50.692;12.844;2023-02-15T04:57:16;17.80;62.90
76878;DHT22;65843;50.692;12.844;2023-02-15T04:58:17;17.80;62.80
76878;DHT22;65843;50.692;12.844;2023-02-15T04:59:17;17.80;62.50
76878;DHT22;65843;50.692;12.844;2023-02-15T05:00:18;17.70;62.90
76878;DHT22;65843;50.692;12.844;2023-02-15T05:01:19;17.80;62.60
76878;DHT22;65843;50.692;12.844;2023-02-15T05:02:20;17.80;62.60
76878;DHT22;65843;50.692;12.844;2023-02-15T05:03:21;17.80;62.70
76878;DHT22;65843;50.692;12.844;2023-02-15T05:04:22;17.80;62.60
76878;DHT22;65843;50.692;12.844;2023-02-15T05:05:23;17.80;62.70
76878;DHT22;65843;50.692;12.844;2023-02-15T05:06:23;17.80;62.50
76878;DHT22;65843;50.692;12.844;2023-02-15T05:07:24;17.80;62.50
76878;DHT22;65843;50.692;12.844;2023-02-15T05:08:25;17.80;62.60
76878;DHT22;65843;50.692;12.844;2023-02-15T05:09:26;17.80;62.50
76878;DHT22;65843;50.692;12.844;2023-02-15T05:10:27;17.80;62.40
76878;DHT22;65843;50.692;12.844;2023-02-15T05:11:28;17.80;62.50
76878;DHT22;65843;50.692;12.844;2023-02-15T05:12:29;17.80;62.50
76878;DHT22;65843;50.692;12.844;2023-02-15T05:13:29;17.80;62.40
76878;DHT22;65843;50.692;12.844;2023-02-15T05:14:30;17.80;62.50
76878;DHT22;65843;50.692;12.844;2023-02-15T05:15:31;17.80;62.30
76878;DHT22;65843;50.692;12.844;2023-02-15T05:16:32;17.80;62.60
76878;DHT22;65843;50.692;12.844;2023-02-15T05:17:33;17.80;62.60
76878;DHT22;65843;50.692;12.844;2023-02-15T05:18:34;17.80;62.50
76878;DHT22;65843;50.692;12.844;2023-02-15T05:19:35;17.80;62.50
76878;DHT22;65843;50.692;12.844;2023-02-15T05:20:36;17.80;62.70
76878;DHT22;65843;50.692;12.844;2023-02-15T05:21:38;17.80;62.50
76878;DHT22;65843;50.692;12.844;2023-02-15T05:22:39;17.80;62.50
76878;DHT22;65843;50.692;12.844;2023-02-15T05:23:41;17.70;62.40
76878;DHT22;65843;50.692;12.844;2023-02-15T05:24:42;17.80;62.30
76878;DHT22;65843;50.692;12.844;2023-02-15T05:26:01;17.70;62.50
76878;DHT22;65843;50.692;12.844;2023-02-15T05:27:31;17.70;62.40
76878;DHT22;65843;50.692;12.844;2023-02-15T05:28:51;17.70;62.40
76878;DHT22;65843;50.692;12.844;2023-02-15T05:29:52;17.70;62.30
76878;DHT22;65843;50.692;12.844;2023-02-15T05:31:03;17.80;62.30
76878;DHT22;65843;50.692;12.844;2023-02-15T05:32:04;17.70;59.00
76878;DHT22;65843;50.692;12.844;2023-02-15T05:33:06;17.70;56.90
76878;DHT22;65843;50.692;12.844;2023-02-15T05:34:07;17.70;56.70
76878;DHT22;65843;50.692;12.844;2023-02-15T05:35:11;17.60;56.70
76878;DHT22;65843;50.692;12.844;2023-02-15T05:36:13;17.60;57.10
76878;DHT22;65843;50.692;12.844;2023-02-15T05:37:14;17.60;58.20
76878;DHT22;65843;50.692;12.844;2023-02-15T05:38:15;17.60;58.30
76878;DHT22;65843;50.692;12.844;2023-02-15T05:39:15;17.60;58.40
76878;DHT22;65843;50.692;12.844;2023-02-15T05:40:16;17.60;58.70
76878;DHT22;65843;50.692;12.844;2023-02-15T05:41:17;17.60;58.80
76878;DHT22;65843;50.692;12.844;2023-02-15T05:42:18;17.60;58.70
76878;DHT22;65843;50.692;12.844;2023-02-15T05:43:19;17.60;58.40
76878;DHT22;65843;50.692;12.844;2023-02-15T05:44:20;17.60;58.30
76878;DHT22;65843;50.692;12.844;2023-02-15T05:45:21;17.60;58.20
76878;DHT22;65843;50.692;12.844;2023-02-15T05:46:21;17.50;58.50
76878;DHT22;65843;50.692;12.844;2023-02-15T05:47:22;17.50;58.50
76878;DHT22;65843;50.692;12.844;2023-02-15T05:48:24;17.50;58.40
76878;DHT22;65843;50.692;12.844;2023-02-15T05:49:25;17.50;58.30
76878;DHT22;65843;50.692;12.844;2023-02-15T05:50:26;17.50;58.30
76878;DHT22;65843;50.692;12.844;2023-02-15T05:51:27;17.50;58.20
76878;DHT22;65843;50.692;12.844;2023-02-15T05:52:27;17.50;58.10
76878;DHT22;65843;50.692;12.844;2023-02-15T05:53:29;17.50;58.00
76878;DHT22;65843;50.692;12.844;2023-02-15T05:54:30;17.50;58.00
76878;DHT22;65843;50.692;12.844;2023-02-15T05:55:31;17.50;57.90
76878;DHT22;65843;50.692;12.844;2023-02-15T05:56:32;17.50;58.00
76878;DHT22;65843;50.692;12.844;2023-02-15T05:57:33;17.50;57.90
76878;DHT22;65843;50.692;12.844;2023-02-15T05:58:35;17.40;57.90
76878;DHT22;65843;50.692;12.844;2023-02-15T05:59:36;17.40;57.90
76878;DHT22;65843;50.692;12.844;2023-02-15T06:00:37;17.40;57.90
76878;DHT22;65843;50.692;12.844;2023-02-15T06:01:37;17.40;58.00
76878;DHT22;65843;50.692;12.844;2023-02-15T06:02:39;17.40;57.60
76878;DHT22;65843;50.692;12.844;2023-02-15T06:03:40;17.40;57.60
76878;DHT22;65843;50.692;12.844;2023-02-15T06:04:41;17.40;57.90
76878;DHT22;65843;50.692;12.844;2023-02-15T06:05:41;17.40;57.70
76878;DHT22;65843;50.692;12.844;2023-02-15T06:06:42;17.40;57.70
76878;DHT22;65843;50.692;12.844;2023-02-15T06:07:43;17.40;57.50
76878;DHT22;65843;50.692;12.844;2023-02-15T06:08:45;17.40;57.60
76878;DHT22;65843;50.692;12.844;2023-02-15T06:09:46;17.40;57.80
76878;DHT22;65843;50.692;12.844;2023-02-15T06:10:47;17.40;57.60
76878;DHT22;65843;50.692;12.844;2023-02-15T06:11:48;17.30;57.70
76878;DHT22;65843;50.692;12.844;2023-02-15T06:12:50;17.30;58.00
76878;DHT22;65843;50.692;12.844;2023-02-15T06:13:51;17.40;58.10
76878;DHT22;65843;50.692;12.844;2023-02-15T06:14:51;17.40;58.10
76878;DHT22;65843;50.692;12.844;2023-02-15T06:15:52;17.50;58.10
76878;DHT22;65843;50.692;12.844;2023-02-15T06:16:53;17.50;58.10
76878;DHT22;65843;50.692;12.844;2023-02-15T06:17:54;17.50;58.00
76878;DHT22;65843;50.692;12.844;2023-02-15T06:18:55;17.50;57.80
76878;DHT22;65843;50.692;12.844;2023-02-15T06:19:56;17.60;57.90
76878;DHT22;65843;50.692;12.844;2023-02-15T06:20:57;17.60;57.60
76878;DHT22;65843;50.692;12.844;2023-02-15T06:21:58;17.60;57.60
76878;DHT22;65843;50.692;12.844;2023-02-15T06:22:58;17.60;57.70
76878;DHT22;65843;50.692;12.844;2023-02-15T06:23:59;17.60;57.70
76878;DHT22;65843;50.692;12.844;2023-02-15T06:25:01;17.60;58.20
76878;DHT22;65843;50.692;12.844;2023-02-15T06:26:01;17.70;58.40
76878;DHT22;65843;50.692;12.844;2023-02-15T06:27:02;17.70;58.50
76878;DHT22;65843;50.692;12.844;2023-02-15T06:28:03;17.80;58.40
76878;DHT22;65843;50.692;12.844;2023-02-15T06:29:04;17.80;58.20
76878;DHT22;65843;50.692;12.844;2023-02-15T06:30:05;17.80;58.00
76878;DHT22;65843;50.692;12.844;2023-02-15T06:31:06;17.80;57.90
76878;DHT22;65843;50.692;12.844;2023-02-15T06:32:07;17.80;57.80
76878;DHT22;65843;50.692;12.844;2023-02-15T06:33:08;17.80;57.50
76878;DHT22;65843;50.692;12.844;2023-02-15T06:34:09;17.80;57.40
76878;DHT22;65843;50.692;12.844;2023-02-15T06:35:10;17.80;56.90
76878;DHT22;65843;50.692;12.844;2023-02-15T06:36:12;17.80;56.10
76878;DHT22;65843;50.692;12.844;2023-02-15T06:37:13;17.70;55.60
76878;DHT22;65843;50.692;12.844;2023-02-15T06:38:14;17.60;55.70
76878;DHT22;65843;50.692;12.844;2023-02-15T06:39:14;17.60;55.80
76878;DHT22;65843;50.692;12.844;2023-02-15T06:40:15;17.60;55.40
76878;DHT22;65843;50.692;12.844;2023-02-15T06:41:16;17.50;55.70
76878;DHT22;65843;50.692;12.844;2023-02-15T06:42:17;17.50;55.70
76878;DHT22;65843;50.692;12.844;2023-02-15T06:43:18;17.50;56.20
76878;DHT22;65843;50.692;12.844;2023-02-15T06:44:19;17.50;56.20
76878;DHT22;65843;50.692;12.844;2023-02-15T06:45:20;17.50;56.50
76878;DHT22;65843;50.692;12.844;2023-02-15T06:46:21;17.50;56.70
76878;DHT22;65843;50.692;12.844;2023-02-15T06:47:22;17.40;56.50
76878;DHT22;65843;50.692;12.844;2023-02-15T06:48:23;17.40;57.00
76878;DHT22;65843;50.692;12.844;2023-02-15T06:49:23;17.40;57.20
76878;DHT22;65843;50.692;12.844;2023-02-15T06:50:24;17.40;57.20
76878;DHT22;65843;50.692;12.844;2023-02-15T06:51:26;17.50;57.30
76878;DHT22;65843;50.692;12.844;2023-02-15T06:52:26;17.50;57.60
76878;DHT22;65843;50.692;12.844;2023-02-15T06:53:29;17.50;57.60
76878;DHT22;65843;50.692;12.844;2023-02-15T06:54:30;17.50;57.50
76878;DHT22;65843;50.692;12.844;2023-02-15T06:55:35;17.60;57.30
76878;DHT22;65843;50.692;12.844;2023-02-15T06:56:36;17.60;57.00
76878;DHT22;65843;50.692;12.844;2023-02-15T06:57:37;17.60;56.60
76878;DHT22;65843;50.692;12.844;2023-02-15T06:58:39;17.70;56.40
76878;DHT22;65843;50.692;12.844;2023-02-15T06:59:41;17.70;56.10
76878;DHT22;65843;50.692;12.844;2023-02-15T07:00:42;17.80;55.90
76878;DHT22;65843;50.692;12.844;2023-02-15T07:01:43;17.80;55.70